Airport ID:CYTF
Update Time (UTC):09/07/2020 16:27
Wind Speed (Knots):2
Wind Direction (Magnetic):340
Temperature (°C):28.9
Dew Point (°C):19.8
Humidity (%):58
Altimeter (inHg):29.93
Density Altitude (Feet):02400
Visibility (Miles):6
Clouds (Hundreds of feet):NCD
Present Weather:
METAR:METAR CYTF 091630Z AUTO VRB02KT 10SM NCD 29/20 A2992

The data displayed is for advisory purposes only and is not to be used for flight planning or operations.

This page is not automatically refreshed. Reload the page to see current data.